Terminal Aerodrome Forecast
Issued by NWS Wakefield, VA

Home | Current Version | Previous Version | Text Only | Print | Product List | Glossary On
Versions: 1 2 3 4 5 6 7 8 9 10 11 12 13 14 15 16 17 18 19 20 21 22
971
FTUS41 KAKQ 241408 AAB
TAFRIC
TAF AMD
KRIC 241408Z 2414/2512 04012KT 4SM -RA BR OVC006
      TEMPO 2414/2416 1SM -RA BR
     FM250600 06010KT 4SM RA OVC004=

USA.gov is the U.S. government's official web portal to all federal, state and local government web resources and services.